메인 페이지
METAR-TAF:

METAR-TAF

공항 :

Charlotte County Airport

Punta Gorda, 플로리다, 미국

위도: 26-55-04N, 경도: 081-59-37W, 고도: 7m

현재 날씨관측

예보는 49분 전, 19:53시(UTC)에 발표되었습니다.
서북서11kt
온도 23°C
습도 69%
기압 1012 hPa
시정: 16.1km
고도 2500ft 상공 구름 조금
고도 3400ft 상공 구름 많음
고도 5000ft 상공 흐림

METAR: KPGD 301953Z 30011KT 10SM FEW025 BKN034 OVC050 23/17 A2988 RMK AO2 SLP117 T02280167

시각: 15:42 (20:42 UTC)

예보

예보는 2 시간 56분 전, 17:46시(UTC)에 발표되었습니다.
예보 대상 시간: 30일 18시부터 01일 18시까지 (UTC)
북서12kt, 순간 최대 풍속 20kt
시정: 10km
고도 2000ft 상공 구름 많음
시계 내 소나기
30일 2100시부터 (UTC)
북서10kt
시정: 10km
고도 3500ft 상공 구름 많음
01일 0900시부터 (UTC)
10kt
시정: 10km
고도 3500ft 상공 구름 많음

TAF: KPGD 301746Z 3018/0118 32012G20KT P6SM VCSH BKN020 FM302100 31010KT P6SM BKN035 FM010900 35010KT P6SM BKN035

4,000개 이상의 공항 관측 자료 및 예보 (METAR 및 TAF 보고).

지도상에서 검색 가능한 기상관측소가 노란 점과 빨간 점으로 표시되어 있습니다.

기상관측소 명을 보려면 표시 위로 마우스를 이동하세요.

날씨 관측과 예보를 보려면 클릭하세요.

지도 변경 : 확대하려면 엑스 표시가 있는 녹색 버튼, 축소하려면 빼기 표시가 있는 녹색 버튼, 다음 페이지의 지도를 보려면 녹색 화살표를 클릭하세요.


METAR-TAF: